Terminal Aerodrome Forecast
Issued by NWS

Current Version | Previous Version | Graphics & Text | Print | Product List | Glossary On
Versions: 1 2 3 4 5 6 7 8 9 10 11 12 13 14 15 16 17
000
FTUS41 KRLX 180200 AAA
TAFCKB
TAF AMD
KCKB 180213Z 1802/1824 13006G16KT P6SM SKC
     FM180400 VRB03KT P6SM SKC
     FM181500 15004KT P6SM SCT200
     FM182100 26006KT P6SM BKN060=

USA.gov is the U.S. government's official web portal to all federal, state and local government web resources and services.